sensor_id;sensor_type;location;lat;lon;timestamp;temperature;humidity
14397;DHT22;50653;0.000;0.000;2022-08-21T00:02:17;19.00;99.90
14397;DHT22;50653;0.000;0.000;2022-08-21T00:04:43;19.10;99.90
14397;DHT22;50653;0.000;0.000;2022-08-21T00:07:10;19.10;99.90
14397;DHT22;50653;0.000;0.000;2022-08-21T00:09:35;19.10;99.90
14397;DHT22;50653;0.000;0.000;2022-08-21T00:12:01;18.90;99.90
14397;DHT22;50653;0.000;0.000;2022-08-21T00:14:27;19.00;99.90
14397;DHT22;50653;0.000;0.000;2022-08-21T00:16:53;19.00;99.90
14397;DHT22;50653;0.000;0.000;2022-08-21T00:19:18;19.10;99.90
14397;DHT22;50653;0.000;0.000;2022-08-21T00:21:44;19.10;99.90
14397;DHT22;50653;0.000;0.000;2022-08-21T00:24:11;19.00;99.90
14397;DHT22;50653;0.000;0.000;2022-08-21T00:26:37;19.00;99.90
14397;DHT22;50653;0.000;0.000;2022-08-21T00:29:03;19.10;99.90
14397;DHT22;50653;0.000;0.000;2022-08-21T00:31:29;19.00;99.90
14397;DHT22;50653;0.000;0.000;2022-08-21T00:33:54;19.00;99.90
14397;DHT22;50653;0.000;0.000;2022-08-21T00:36:20;19.10;99.90
14397;DHT22;50653;0.000;0.000;2022-08-21T00:38:45;19.00;99.90
14397;DHT22;50653;0.000;0.000;2022-08-21T00:41:11;19.00;99.90
14397;DHT22;50653;0.000;0.000;2022-08-21T00:43:38;19.00;99.90
14397;DHT22;50653;0.000;0.000;2022-08-21T00:46:05;19.00;99.90
14397;DHT22;50653;0.000;0.000;2022-08-21T00:48:32;18.80;99.90
14397;DHT22;50653;0.000;0.000;2022-08-21T00:51:19;18.80;99.90
14397;DHT22;50653;0.000;0.000;2022-08-21T00:53:54;18.80;99.90
14397;DHT22;50653;0.000;0.000;2022-08-21T00:56:22;18.80;99.90
14397;DHT22;50653;0.000;0.000;2022-08-21T00:58:48;18.70;99.90
14397;DHT22;50653;0.000;0.000;2022-08-21T01:01:14;18.80;99.90
14397;DHT22;50653;0.000;0.000;2022-08-21T01:03:41;18.80;99.90
14397;DHT22;50653;0.000;0.000;2022-08-21T01:06:07;18.70;99.90
14397;DHT22;50653;0.000;0.000;2022-08-21T01:08:33;18.70;99.90
14397;DHT22;50653;0.000;0.000;2022-08-21T01:11:00;18.80;99.90
14397;DHT22;50653;0.000;0.000;2022-08-21T01:13:27;18.80;99.90
14397;DHT22;50653;0.000;0.000;2022-08-21T01:15:58;18.80;99.90
14397;DHT22;50653;0.000;0.000;2022-08-21T01:18:25;18.80;99.90
14397;DHT22;50653;0.000;0.000;2022-08-21T01:21:10;18.70;99.90
14397;DHT22;50653;0.000;0.000;2022-08-21T01:23:39;18.70;99.90
14397;DHT22;50653;0.000;0.000;2022-08-21T01:26:06;18.80;99.90
14397;DHT22;50653;0.000;0.000;2022-08-21T01:28:36;18.90;99.90
14397;DHT22;50653;0.000;0.000;2022-08-21T01:31:05;18.90;99.90
14397;DHT22;50653;0.000;0.000;2022-08-21T01:33:32;18.90;99.90
14397;DHT22;50653;0.000;0.000;2022-08-21T01:35:58;18.90;99.90
14397;DHT22;50653;0.000;0.000;2022-08-21T01:38:25;18.80;99.90
14397;DHT22;50653;0.000;0.000;2022-08-21T01:40:51;18.90;99.90
14397;DHT22;50653;0.000;0.000;2022-08-21T01:43:17;18.90;99.90
14397;DHT22;50653;0.000;0.000;2022-08-21T01:45:43;18.80;99.90
14397;DHT22;50653;0.000;0.000;2022-08-21T01:48:09;18.90;99.90
14397;DHT22;50653;0.000;0.000;2022-08-21T01:50:35;18.80;99.90
14397;DHT22;50653;0.000;0.000;2022-08-21T01:53:01;18.50;99.90
14397;DHT22;50653;0.000;0.000;2022-08-21T01:55:26;18.60;99.90
14397;DHT22;50653;0.000;0.000;2022-08-21T01:57:52;18.80;99.90
14397;DHT22;50653;0.000;0.000;2022-08-21T02:00:21;18.80;99.90
14397;DHT22;50653;0.000;0.000;2022-08-21T02:02:48;18.70;99.90
14397;DHT22;50653;0.000;0.000;2022-08-21T02:05:15;18.50;99.90
14397;DHT22;50653;0.000;0.000;2022-08-21T02:07:44;18.50;99.90
14397;DHT22;50653;0.000;0.000;2022-08-21T02:10:13;18.80;99.90
14397;DHT22;50653;0.000;0.000;2022-08-21T02:12:39;18.70;99.90
14397;DHT22;50653;0.000;0.000;2022-08-21T02:15:07;18.70;99.90
14397;DHT22;50653;0.000;0.000;2022-08-21T02:17:49;18.70;99.90
14397;DHT22;50653;0.000;0.000;2022-08-21T02:20:19;18.70;99.90
14397;DHT22;50653;0.000;0.000;2022-08-21T02:22:45;18.50;99.90
14397;DHT22;50653;0.000;0.000;2022-08-21T02:25:11;18.30;99.90
14397;DHT22;50653;0.000;0.000;2022-08-21T02:27:42;18.20;99.90
14397;DHT22;50653;0.000;0.000;2022-08-21T02:30:15;18.40;99.90
14397;DHT22;50653;0.000;0.000;2022-08-21T02:32:42;18.50;99.90
14397;DHT22;50653;0.000;0.000;2022-08-21T02:35:09;18.50;99.90
14397;DHT22;50653;0.000;0.000;2022-08-21T02:37:46;18.70;99.90
14397;DHT22;50653;0.000;0.000;2022-08-21T02:40:14;18.80;99.90
14397;DHT22;50653;0.000;0.000;2022-08-21T02:42:40;18.70;99.90
14397;DHT22;50653;0.000;0.000;2022-08-21T02:45:07;18.70;99.90
14397;DHT22;50653;0.000;0.000;2022-08-21T02:47:32;18.80;99.90
14397;DHT22;50653;0.000;0.000;2022-08-21T02:49:58;18.80;99.90
14397;DHT22;50653;0.000;0.000;2022-08-21T02:52:23;18.70;99.90
14397;DHT22;50653;0.000;0.000;2022-08-21T02:54:49;18.70;99.90
14397;DHT22;50653;0.000;0.000;2022-08-21T02:57:15;18.70;99.90
14397;DHT22;50653;0.000;0.000;2022-08-21T02:59:41;18.80;99.90
14397;DHT22;50653;0.000;0.000;2022-08-21T03:02:07;18.90;99.90
14397;DHT22;50653;0.000;0.000;2022-08-21T03:04:33;18.90;99.90
14397;DHT22;50653;0.000;0.000;2022-08-21T03:06:58;18.80;99.90
14397;DHT22;50653;0.000;0.000;2022-08-21T03:09:24;18.80;99.90
14397;DHT22;50653;0.000;0.000;2022-08-21T03:11:50;18.80;99.90
14397;DHT22;50653;0.000;0.000;2022-08-21T03:14:17;18.70;99.90
14397;DHT22;50653;0.000;0.000;2022-08-21T03:16:43;18.60;99.90
14397;DHT22;50653;0.000;0.000;2022-08-21T03:19:09;18.70;99.90
14397;DHT22;50653;0.000;0.000;2022-08-21T03:21:35;18.80;99.90
14397;DHT22;50653;0.000;0.000;2022-08-21T03:24:01;18.90;99.90
14397;DHT22;50653;0.000;0.000;2022-08-21T03:26:27;19.00;99.90
14397;DHT22;50653;0.000;0.000;2022-08-21T03:28:52;19.00;99.90
14397;DHT22;50653;0.000;0.000;2022-08-21T03:31:18;18.90;99.90
14397;DHT22;50653;0.000;0.000;2022-08-21T03:33:44;18.90;99.90
14397;DHT22;50653;0.000;0.000;2022-08-21T03:36:10;18.80;99.90
14397;DHT22;50653;0.000;0.000;2022-08-21T03:38:36;18.60;99.90
14397;DHT22;50653;0.000;0.000;2022-08-21T03:41:04;18.70;99.90
14397;DHT22;50653;0.000;0.000;2022-08-21T03:43:30;18.80;99.90
14397;DHT22;50653;0.000;0.000;2022-08-21T03:45:56;18.80;99.90
14397;DHT22;50653;0.000;0.000;2022-08-21T03:48:22;18.80;99.90
14397;DHT22;50653;0.000;0.000;2022-08-21T03:50:48;18.90;99.90
14397;DHT22;50653;0.000;0.000;2022-08-21T03:53:15;18.80;99.90
14397;DHT22;50653;0.000;0.000;2022-08-21T03:55:41;18.70;99.90
14397;DHT22;50653;0.000;0.000;2022-08-21T03:58:07;18.70;99.90
14397;DHT22;50653;0.000;0.000;2022-08-21T04:00:33;18.80;99.90
14397;DHT22;50653;0.000;0.000;2022-08-21T04:02:59;18.90;99.90
14397;DHT22;50653;0.000;0.000;2022-08-21T04:05:25;18.80;99.90
14397;DHT22;50653;0.000;0.000;2022-08-21T04:08:01;18.80;99.90
14397;DHT22;50653;0.000;0.000;2022-08-21T04:10:28;18.90;99.90
14397;DHT22;50653;0.000;0.000;2022-08-21T04:12:54;18.90;99.90
14397;DHT22;50653;0.000;0.000;2022-08-21T04:15:21;18.80;99.90
14397;DHT22;50653;0.000;0.000;2022-08-21T04:17:48;18.90;99.90
14397;DHT22;50653;0.000;0.000;2022-08-21T04:20:15;18.90;99.90
14397;DHT22;50653;0.000;0.000;2022-08-21T04:22:41;18.90;99.90
14397;DHT22;50653;0.000;0.000;2022-08-21T04:25:08;18.90;99.90
14397;DHT22;50653;0.000;0.000;2022-08-21T04:27:34;18.90;99.90
14397;DHT22;50653;0.000;0.000;2022-08-21T04:30:00;19.00;99.90
14397;DHT22;50653;0.000;0.000;2022-08-21T04:32:26;18.90;99.90
14397;DHT22;50653;0.000;0.000;2022-08-21T04:35:05;18.80;99.90
14397;DHT22;50653;0.000;0.000;2022-08-21T04:37:31;18.90;99.90
14397;DHT22;50653;0.000;0.000;2022-08-21T04:39:57;18.90;99.90
14397;DHT22;50653;0.000;0.000;2022-08-21T04:42:24;18.90;99.90
14397;DHT22;50653;0.000;0.000;2022-08-21T04:44:50;19.00;99.90
14397;DHT22;50653;0.000;0.000;2022-08-21T04:47:16;19.00;99.90
14397;DHT22;50653;0.000;0.000;2022-08-21T04:49:43;18.90;99.90
14397;DHT22;50653;0.000;0.000;2022-08-21T04:52:09;18.90;99.90
14397;DHT22;50653;0.000;0.000;2022-08-21T04:54:36;18.80;99.90
14397;DHT22;50653;0.000;0.000;2022-08-21T04:57:06;18.70;99.90
14397;DHT22;50653;0.000;0.000;2022-08-21T04:59:40;18.70;99.90
14397;DHT22;50653;0.000;0.000;2022-08-21T05:02:08;18.80;99.90
14397;DHT22;50653;0.000;0.000;2022-08-21T05:04:37;18.90;99.90
14397;DHT22;50653;0.000;0.000;2022-08-21T05:07:09;18.70;99.90
14397;DHT22;50653;0.000;0.000;2022-08-21T05:09:37;18.80;99.90
14397;DHT22;50653;0.000;0.000;2022-08-21T05:12:03;18.70;99.90
14397;DHT22;50653;0.000;0.000;2022-08-21T05:14:29;18.80;99.90
14397;DHT22;50653;0.000;0.000;2022-08-21T05:16:54;18.80;99.90
14397;DHT22;50653;0.000;0.000;2022-08-21T05:19:20;19.00;99.90
14397;DHT22;50653;0.000;0.000;2022-08-21T05:21:46;18.90;99.90
14397;DHT22;50653;0.000;0.000;2022-08-21T05:24:15;18.90;99.90
14397;DHT22;50653;0.000;0.000;2022-08-21T05:26:41;18.90;99.90
14397;DHT22;50653;0.000;0.000;2022-08-21T05:29:07;18.90;99.90
14397;DHT22;50653;0.000;0.000;2022-08-21T05:31:33;18.90;99.90
14397;DHT22;50653;0.000;0.000;2022-08-21T05:33:59;18.90;99.90
14397;DHT22;50653;0.000;0.000;2022-08-21T05:36:25;18.90;99.90
14397;DHT22;50653;0.000;0.000;2022-08-21T05:38:50;18.90;99.90
14397;DHT22;50653;0.000;0.000;2022-08-21T05:41:16;19.00;99.90
14397;DHT22;50653;0.000;0.000;2022-08-21T05:43:42;18.90;99.90
14397;DHT22;50653;0.000;0.000;2022-08-21T05:46:07;18.90;99.90
14397;DHT22;50653;0.000;0.000;2022-08-21T05:48:34;18.90;99.90
14397;DHT22;50653;0.000;0.000;2022-08-21T05:51:08;18.90;99.90
14397;DHT22;50653;0.000;0.000;2022-08-21T05:53:34;18.90;99.90
14397;DHT22;50653;0.000;0.000;2022-08-21T05:56:00;18.80;99.90
14397;DHT22;50653;0.000;0.000;2022-08-21T05:58:29;18.90;99.90
14397;DHT22;50653;0.000;0.000;2022-08-21T06:00:56;18.80;99.90
14397;DHT22;50653;0.000;0.000;2022-08-21T06:03:27;18.90;99.90
14397;DHT22;50653;0.000;0.000;2022-08-21T06:05:53;18.80;99.90
14397;DHT22;50653;0.000;0.000;2022-08-21T06:08:20;18.90;99.90
14397;DHT22;50653;0.000;0.000;2022-08-21T06:10:47;18.90;99.90
14397;DHT22;50653;0.000;0.000;2022-08-21T06:13:14;18.80;99.90
14397;DHT22;50653;0.000;0.000;2022-08-21T06:15:41;18.70;99.90
14397;DHT22;50653;0.000;0.000;2022-08-21T06:18:07;18.80;99.90
14397;DHT22;50653;0.000;0.000;2022-08-21T06:20:32;18.70;99.90
14397;DHT22;50653;0.000;0.000;2022-08-21T06:22:58;18.80;99.90
14397;DHT22;50653;0.000;0.000;2022-08-21T06:25:24;18.80;99.90
14397;DHT22;50653;0.000;0.000;2022-08-21T06:27:50;18.80;99.90
14397;DHT22;50653;0.000;0.000;2022-08-21T06:30:16;18.80;99.90
14397;DHT22;50653;0.000;0.000;2022-08-21T06:32:42;18.90;99.90
14397;DHT22;50653;0.000;0.000;2022-08-21T06:35:08;18.80;99.90
14397;DHT22;50653;0.000;0.000;2022-08-21T06:37:34;18.80;99.90
14397;DHT22;50653;0.000;0.000;2022-08-21T06:39:59;18.80;99.90
14397;DHT22;50653;0.000;0.000;2022-08-21T06:42:25;18.80;99.90
14397;DHT22;50653;0.000;0.000;2022-08-21T06:44:52;18.80;99.90
14397;DHT22;50653;0.000;0.000;2022-08-21T06:47:18;18.80;99.90
14397;DHT22;50653;0.000;0.000;2022-08-21T06:49:43;18.80;99.90
14397;DHT22;50653;0.000;0.000;2022-08-21T06:52:11;18.90;99.90
14397;DHT22;50653;0.000;0.000;2022-08-21T06:54:37;18.90;99.90
14397;DHT22;50653;0.000;0.000;2022-08-21T06:57:03;18.80;99.90
14397;DHT22;50653;0.000;0.000;2022-08-21T06:59:29;18.50;99.90
14397;DHT22;50653;0.000;0.000;2022-08-21T07:01:55;18.60;99.90
14397;DHT22;50653;0.000;0.000;2022-08-21T07:04:20;18.60;99.90
14397;DHT22;50653;0.000;0.000;2022-08-21T07:06:46;18.70;99.90
14397;DHT22;50653;0.000;0.000;2022-08-21T07:09:12;18.90;99.90
14397;DHT22;50653;0.000;0.000;2022-08-21T07:11:37;18.90;99.90
14397;DHT22;50653;0.000;0.000;2022-08-21T07:14:04;19.00;99.90
14397;DHT22;50653;0.000;0.000;2022-08-21T07:16:29;18.70;99.90
14397;DHT22;50653;0.000;0.000;2022-08-21T07:18:55;18.80;99.90
14397;DHT22;50653;0.000;0.000;2022-08-21T07:21:21;19.00;99.90
14397;DHT22;50653;0.000;0.000;2022-08-21T07:23:49;19.10;99.90
14397;DHT22;50653;0.000;0.000;2022-08-21T07:26:16;19.20;99.90
14397;DHT22;50653;0.000;0.000;2022-08-21T07:28:43;19.20;99.90
14397;DHT22;50653;0.000;0.000;2022-08-21T07:31:09;19.20;99.90
14397;DHT22;50653;0.000;0.000;2022-08-21T07:33:36;19.30;99.90
14397;DHT22;50653;0.000;0.000;2022-08-21T07:36:02;19.40;99.90
14397;DHT22;50653;0.000;0.000;2022-08-21T07:38:28;19.40;99.90
14397;DHT22;50653;0.000;0.000;2022-08-21T07:40:55;19.40;99.90
14397;DHT22;50653;0.000;0.000;2022-08-21T07:43:21;19.30;99.90
14397;DHT22;50653;0.000;0.000;2022-08-21T07:45:48;19.40;99.90
14397;DHT22;50653;0.000;0.000;2022-08-21T07:48:15;19.40;99.90
14397;DHT22;50653;0.000;0.000;2022-08-21T07:50:41;19.50;99.90
14397;DHT22;50653;0.000;0.000;2022-08-21T07:53:07;19.50;99.90
14397;DHT22;50653;0.000;0.000;2022-08-21T07:55:33;19.60;99.90
14397;DHT22;50653;0.000;0.000;2022-08-21T07:57:58;19.60;99.90
14397;DHT22;50653;0.000;0.000;2022-08-21T08:00:25;19.60;99.90
14397;DHT22;50653;0.000;0.000;2022-08-21T08:02:52;19.50;99.90
14397;DHT22;50653;0.000;0.000;2022-08-21T08:05:24;19.50;99.90
14397;DHT22;50653;0.000;0.000;2022-08-21T08:07:50;19.60;99.90
14397;DHT22;50653;0.000;0.000;2022-08-21T08:10:16;19.60;99.90
14397;DHT22;50653;0.000;0.000;2022-08-21T08:12:43;19.70;99.90
14397;DHT22;50653;0.000;0.000;2022-08-21T08:15:12;19.70;99.90
14397;DHT22;50653;0.000;0.000;2022-08-21T08:17:38;19.70;99.90
14397;DHT22;50653;0.000;0.000;2022-08-21T08:20:06;19.70;99.90
14397;DHT22;50653;0.000;0.000;2022-08-21T08:22:32;19.80;99.90
14397;DHT22;50653;0.000;0.000;2022-08-21T08:24:58;19.70;99.90
14397;DHT22;50653;0.000;0.000;2022-08-21T08:27:25;19.70;99.90
14397;DHT22;50653;0.000;0.000;2022-08-21T08:29:51;19.80;99.90
14397;DHT22;50653;0.000;0.000;2022-08-21T08:32:17;19.80;99.90
14397;DHT22;50653;0.000;0.000;2022-08-21T08:34:43;19.90;99.90
14397;DHT22;50653;0.000;0.000;2022-08-21T08:37:09;19.80;99.90
14397;DHT22;50653;0.000;0.000;2022-08-21T08:39:35;19.80;99.90
14397;DHT22;50653;0.000;0.000;2022-08-21T08:44:48;19.90;99.90
14397;DHT22;50653;0.000;0.000;2022-08-21T08:47:17;19.90;99.90
14397;DHT22;50653;0.000;0.000;2022-08-21T08:49:58;19.90;99.90
14397;DHT22;50653;0.000;0.000;2022-08-21T08:52:31;19.80;99.90
14397;DHT22;50653;0.000;0.000;2022-08-21T08:55:08;19.90;99.90
14397;DHT22;50653;0.000;0.000;2022-08-21T08:57:36;20.00;99.90
14397;DHT22;50653;0.000;0.000;2022-08-21T09:00:12;20.00;99.90
14397;DHT22;50653;0.000;0.000;2022-08-21T09:02:40;20.00;99.90
14397;DHT22;50653;0.000;0.000;2022-08-21T09:05:07;20.10;99.90
14397;DHT22;50653;0.000;0.000;2022-08-21T09:07:47;20.10;99.90
14397;DHT22;50653;0.000;0.000;2022-08-21T09:10:30;20.10;99.90
14397;DHT22;50653;0.000;0.000;2022-08-21T09:13:25;20.10;99.90
14397;DHT22;50653;0.000;0.000;2022-08-21T09:16:28;20.20;99.90
14397;DHT22;50653;0.000;0.000;2022-08-21T09:19:07;20.20;99.90
14397;DHT22;50653;0.000;0.000;2022-08-21T09:24:53;20.30;99.90
14397;DHT22;50653;0.000;0.000;2022-08-21T09:27:23;20.30;99.90
14397;DHT22;50653;0.000;0.000;2022-08-21T09:29:51;20.40;99.90
14397;DHT22;50653;0.000;0.000;2022-08-21T09:32:29;20.30;99.90
14397;DHT22;50653;0.000;0.000;2022-08-21T09:35:05;20.40;99.90
14397;DHT22;50653;0.000;0.000;2022-08-21T09:37:34;20.50;99.90
14397;DHT22;50653;0.000;0.000;2022-08-21T09:40:02;20.50;99.90
14397;DHT22;50653;0.000;0.000;2022-08-21T09:42:30;20.50;99.90
14397;DHT22;50653;0.000;0.000;2022-08-21T09:45:25;20.50;99.90
14397;DHT22;50653;0.000;0.000;2022-08-21T09:47:51;20.60;99.90
14397;DHT22;50653;0.000;0.000;2022-08-21T09:50:23;20.60;99.90
14397;DHT22;50653;0.000;0.000;2022-08-21T09:53:00;20.70;99.90
14397;DHT22;50653;0.000;0.000;2022-08-21T09:55:33;21.00;99.90
14397;DHT22;50653;0.000;0.000;2022-08-21T09:58:20;20.90;99.90
14397;DHT22;50653;0.000;0.000;2022-08-21T10:00:49;21.00;99.90
14397;DHT22;50653;0.000;0.000;2022-08-21T10:03:21;21.10;99.90
14397;DHT22;50653;0.000;0.000;2022-08-21T10:06:04;21.00;99.90
14397;DHT22;50653;0.000;0.000;2022-08-21T10:08:32;21.00;99.90
14397;DHT22;50653;0.000;0.000;2022-08-21T10:11:07;21.20;99.90
14397;DHT22;50653;0.000;0.000;2022-08-21T10:33:03;21.30;96.90
14397;DHT22;50653;0.000;0.000;2022-08-21T10:35:45;21.40;96.90
14397;DHT22;50653;0.000;0.000;2022-08-21T10:38:41;21.50;97.50
14397;DHT22;50653;0.000;0.000;2022-08-21T10:47:02;21.70;91.80
14397;DHT22;50653;0.000;0.000;2022-08-21T10:49:47;21.60;91.70
14397;DHT22;50653;0.000;0.000;2022-08-21T10:55:15;21.60;95.70
14397;DHT22;50653;0.000;0.000;2022-08-21T10:58:14;21.70;96.10
14397;DHT22;50653;0.000;0.000;2022-08-21T11:00:48;21.90;95.90
14397;DHT22;50653;0.000;0.000;2022-08-21T11:05:58;21.80;95.40
14397;DHT22;50653;0.000;0.000;2022-08-21T11:08:43;21.60;96.20
14397;DHT22;50653;0.000;0.000;2022-08-21T11:11:21;21.60;95.70
14397;DHT22;50653;0.000;0.000;2022-08-21T11:13:56;21.70;96.30
14397;DHT22;50653;0.000;0.000;2022-08-21T11:16:36;21.70;96.90
14397;DHT22;50653;0.000;0.000;2022-08-21T11:24:56;21.80;96.80
14397;DHT22;50653;0.000;0.000;2022-08-21T11:30:06;21.80;97.30
14397;DHT22;50653;0.000;0.000;2022-08-21T11:33:03;21.80;97.50
14397;DHT22;50653;0.000;0.000;2022-08-21T11:38:40;21.80;96.10
14397;DHT22;50653;0.000;0.000;2022-08-21T11:41:22;21.90;96.90
14397;DHT22;50653;0.000;0.000;2022-08-21T11:46:47;21.90;94.50
14397;DHT22;50653;0.000;0.000;2022-08-21T11:52:20;22.10;94.30
14397;DHT22;50653;0.000;0.000;2022-08-21T11:57:27;22.10;95.50
14397;DHT22;50653;0.000;0.000;2022-08-21T12:02:55;22.30;95.50
14397;DHT22;50653;0.000;0.000;2022-08-21T12:05:38;22.20;95.10
14397;DHT22;50653;0.000;0.000;2022-08-21T12:08:12;22.10;95.40
14397;DHT22;50653;0.000;0.000;2022-08-21T12:10:46;22.30;92.30
14397;DHT22;50653;0.000;0.000;2022-08-21T12:13:27;22.50;91.80
14397;DHT22;50653;0.000;0.000;2022-08-21T12:16:09;22.40;93.10
14397;DHT22;50653;0.000;0.000;2022-08-21T12:18:35;22.50;93.20
14397;DHT22;50653;0.000;0.000;2022-08-21T12:21:23;22.60;91.60
14397;DHT22;50653;0.000;0.000;2022-08-21T12:29:07;22.60;81.10
14397;DHT22;50653;0.000;0.000;2022-08-21T12:31:36;22.80;80.90
14397;DHT22;50653;0.000;0.000;2022-08-21T12:34:14;22.90;84.80
14397;DHT22;50653;0.000;0.000;2022-08-21T12:36:57;22.80;84.60
14397;DHT22;50653;0.000;0.000;2022-08-21T12:39:26;22.70;88.10
14397;DHT22;50653;0.000;0.000;2022-08-21T12:42:17;22.50;90.70
14397;DHT22;50653;0.000;0.000;2022-08-21T12:44:55;22.40;91.00
14397;DHT22;50653;0.000;0.000;2022-08-21T12:47:34;22.10;90.20
14397;DHT22;50653;0.000;0.000;2022-08-21T12:50:12;22.00;88.50
14397;DHT22;50653;0.000;0.000;2022-08-21T12:52:51;21.90;90.10
14397;DHT22;50653;0.000;0.000;2022-08-21T12:55:30;21.90;87.80
14397;DHT22;50653;0.000;0.000;2022-08-21T12:57:57;21.90;90.50
14397;DHT22;50653;0.000;0.000;2022-08-21T13:00:25;21.80;89.00
14397;DHT22;50653;0.000;0.000;2022-08-21T13:02:52;21.70;90.50
14397;DHT22;50653;0.000;0.000;2022-08-21T13:05:33;21.70;90.30
14397;DHT22;50653;0.000;0.000;2022-08-21T13:08:04;21.50;90.10
14397;DHT22;50653;0.000;0.000;2022-08-21T13:10:32;21.50;90.50
14397;DHT22;50653;0.000;0.000;2022-08-21T13:13:01;21.60;91.10
14397;DHT22;50653;0.000;0.000;2022-08-21T13:15:38;21.70;91.10
14397;DHT22;50653;0.000;0.000;2022-08-21T13:18:05;21.80;90.00
14397;DHT22;50653;0.000;0.000;2022-08-21T13:20:36;21.70;89.40
14397;DHT22;50653;0.000;0.000;2022-08-21T13:23:07;21.80;90.40
14397;DHT22;50653;0.000;0.000;2022-08-21T13:25:36;21.80;88.60
14397;DHT22;50653;0.000;0.000;2022-08-21T13:28:08;21.80;84.30
14397;DHT22;50653;0.000;0.000;2022-08-21T13:30:39;21.90;84.50
14397;DHT22;50653;0.000;0.000;2022-08-21T13:33:05;21.80;85.40
14397;DHT22;50653;0.000;0.000;2022-08-21T13:36:13;21.80;84.90
14397;DHT22;50653;0.000;0.000;2022-08-21T13:38:41;21.90;85.50
14397;DHT22;50653;0.000;0.000;2022-08-21T13:43:47;22.20;86.60
14397;DHT22;50653;0.000;0.000;2022-08-21T13:46:14;22.30;84.60
14397;DHT22;50653;0.000;0.000;2022-08-21T13:48:41;22.40;84.40
14397;DHT22;50653;0.000;0.000;2022-08-21T13:51:08;22.40;83.60
14397;DHT22;50653;0.000;0.000;2022-08-21T13:56:06;22.70;85.60
14397;DHT22;50653;0.000;0.000;2022-08-21T13:58:43;22.60;85.30
14397;DHT22;50653;0.000;0.000;2022-08-21T14:01:48;22.60;84.20
14397;DHT22;50653;0.000;0.000;2022-08-21T14:04:20;22.60;84.10
14397;DHT22;50653;0.000;0.000;2022-08-21T14:06:47;22.60;85.60
14397;DHT22;50653;0.000;0.000;2022-08-21T14:09:30;22.70;84.30
14397;DHT22;50653;0.000;0.000;2022-08-21T14:11:58;22.70;84.40
14397;DHT22;50653;0.000;0.000;2022-08-21T14:14:32;22.80;83.30
14397;DHT22;50653;0.000;0.000;2022-08-21T14:17:05;22.70;81.80
14397;DHT22;50653;0.000;0.000;2022-08-21T14:19:46;22.70;85.20
14397;DHT22;50653;0.000;0.000;2022-08-21T14:22:36;22.80;84.80
14397;DHT22;50653;0.000;0.000;2022-08-21T14:25:05;22.90;83.80
14397;DHT22;50653;0.000;0.000;2022-08-21T14:27:33;22.80;84.50
14397;DHT22;50653;0.000;0.000;2022-08-21T14:30:04;22.90;81.40
14397;DHT22;50653;0.000;0.000;2022-08-21T14:32:38;22.90;80.00
14397;DHT22;50653;0.000;0.000;2022-08-21T14:35:05;22.90;80.50
14397;DHT22;50653;0.000;0.000;2022-08-21T14:37:31;22.90;81.00
14397;DHT22;50653;0.000;0.000;2022-08-21T14:39:57;23.00;81.50
14397;DHT22;50653;0.000;0.000;2022-08-21T14:42:23;22.80;81.10
14397;DHT22;50653;0.000;0.000;2022-08-21T14:44:49;22.80;80.50
14397;DHT22;50653;0.000;0.000;2022-08-21T14:47:15;22.90;80.90
14397;DHT22;50653;0.000;0.000;2022-08-21T14:49:41;22.80;79.20
14397;DHT22;50653;0.000;0.000;2022-08-21T14:52:07;22.80;79.60
14397;DHT22;50653;0.000;0.000;2022-08-21T14:54:32;22.90;80.60
14397;DHT22;50653;0.000;0.000;2022-08-21T14:57:01;22.90;79.90
14397;DHT22;50653;0.000;0.000;2022-08-21T14:59:27;22.90;78.70
14397;DHT22;50653;0.000;0.000;2022-08-21T15:01:53;22.90;77.40
14397;DHT22;50653;0.000;0.000;2022-08-21T15:04:18;23.00;78.10
14397;DHT22;50653;0.000;0.000;2022-08-21T15:06:44;23.00;80.20
14397;DHT22;50653;0.000;0.000;2022-08-21T15:09:09;23.10;77.60
14397;DHT22;50653;0.000;0.000;2022-08-21T15:11:35;23.10;78.60
14397;DHT22;50653;0.000;0.000;2022-08-21T15:14:03;23.10;76.10
14397;DHT22;50653;0.000;0.000;2022-08-21T15:16:30;23.10;78.80
14397;DHT22;50653;0.000;0.000;2022-08-21T15:18:57;23.00;76.20
14397;DHT22;50653;0.000;0.000;2022-08-21T15:21:22;23.10;76.10
14397;DHT22;50653;0.000;0.000;2022-08-21T15:23:48;23.00;75.90
14397;DHT22;50653;0.000;0.000;2022-08-21T15:26:14;23.00;76.70
14397;DHT22;50653;0.000;0.000;2022-08-21T15:28:40;23.00;79.80
14397;DHT22;50653;0.000;0.000;2022-08-21T15:31:06;23.00;78.20
14397;DHT22;50653;0.000;0.000;2022-08-21T15:33:32;23.00;80.30
14397;DHT22;50653;0.000;0.000;2022-08-21T15:35:58;23.20;76.60
14397;DHT22;50653;0.000;0.000;2022-08-21T15:38:24;23.10;79.00
14397;DHT22;50653;0.000;0.000;2022-08-21T15:40:50;23.50;73.70
14397;DHT22;50653;0.000;0.000;2022-08-21T15:43:27;23.30;74.90
14397;DHT22;50653;0.000;0.000;2022-08-21T15:45:53;23.40;70.80
14397;DHT22;50653;0.000;0.000;2022-08-21T15:48:19;23.50;69.50
14397;DHT22;50653;0.000;0.000;2022-08-21T15:50:45;23.50;71.50
14397;DHT22;50653;0.000;0.000;2022-08-21T15:53:11;23.40;70.10
14397;DHT22;50653;0.000;0.000;2022-08-21T15:55:36;23.80;66.60
14397;DHT22;50653;0.000;0.000;2022-08-21T15:58:04;23.90;67.50
14397;DHT22;50653;0.000;0.000;2022-08-21T16:00:32;23.80;65.10
14397;DHT22;50653;0.000;0.000;2022-08-21T16:02:59;23.90;63.80
14397;DHT22;50653;0.000;0.000;2022-08-21T16:05:26;23.90;62.90
14397;DHT22;50653;0.000;0.000;2022-08-21T16:07:52;23.80;66.50
14397;DHT22;50653;0.000;0.000;2022-08-21T16:10:20;23.90;64.00
14397;DHT22;50653;0.000;0.000;2022-08-21T16:12:50;23.80;62.60
14397;DHT22;50653;0.000;0.000;2022-08-21T16:15:17;23.90;62.90
14397;DHT22;50653;0.000;0.000;2022-08-21T16:17:45;23.90;64.70
14397;DHT22;50653;0.000;0.000;2022-08-21T16:20:17;23.80;64.60
14397;DHT22;50653;0.000;0.000;2022-08-21T16:22:44;23.60;65.90
14397;DHT22;50653;0.000;0.000;2022-08-21T16:25:10;23.60;67.80
14397;DHT22;50653;0.000;0.000;2022-08-21T16:27:36;23.60;67.80
14397;DHT22;50653;0.000;0.000;2022-08-21T16:30:04;23.70;66.40
14397;DHT22;50653;0.000;0.000;2022-08-21T16:32:30;23.70;67.10
14397;DHT22;50653;0.000;0.000;2022-08-21T16:34:55;23.60;68.70
14397;DHT22;50653;0.000;0.000;2022-08-21T16:37:21;23.60;69.60
14397;DHT22;50653;0.000;0.000;2022-08-21T16:39:47;23.50;68.40
14397;DHT22;50653;0.000;0.000;2022-08-21T16:42:16;23.50;69.70
14397;DHT22;50653;0.000;0.000;2022-08-21T16:44:43;23.40;69.80
14397;DHT22;50653;0.000;0.000;2022-08-21T16:47:09;23.50;70.30
14397;DHT22;50653;0.000;0.000;2022-08-21T16:49:35;23.50;70.60
14397;DHT22;50653;0.000;0.000;2022-08-21T16:52:01;23.40;71.60
14397;DHT22;50653;0.000;0.000;2022-08-21T16:54:27;23.50;70.30
14397;DHT22;50653;0.000;0.000;2022-08-21T16:56:55;23.50;70.70
14397;DHT22;50653;0.000;0.000;2022-08-21T16:59:21;23.50;70.60
14397;DHT22;50653;0.000;0.000;2022-08-21T17:01:47;23.40;71.20
14397;DHT22;50653;0.000;0.000;2022-08-21T17:04:13;23.40;70.00
14397;DHT22;50653;0.000;0.000;2022-08-21T17:06:38;23.40;70.60
14397;DHT22;50653;0.000;0.000;2022-08-21T17:09:04;23.40;70.70